SBOSBO ISB / OPIS
Speedbird OnlineSpeedbird Online ISB / OPIS

New Islamabad International Airport
02:47 30.4°C

Location Islamabad, Pakistan
Latitude: 33.560713
Longitude: 72.851613
Local Time 02:47 on 30 May 2024
UTC +5 hours (Asia/Karachi)
Currency £1 equals PKR 355.88
METAR OPIS 292030Z 27004KT 6000 NSC 24/07 Q0999 NOSIG
TAF TAF OPIS 291730Z 2918/3024 29010KT 5000 HZ NSC PROB30 TEMPO 2921/3002 29015G25KT 4000 -TSRA FEW030CB SCT060 BKN100 TEMPO 3006/3012 29015G25KT 6000 NSC TEMPO 3021/3024 29010KT 4000 FU NSC
Weather As Of 30 May 2024 02:01
Description Clear sky
Wind 15 km/h from North (341°)
Cloud Cover 0%
Precipitation Rain: none, Snow: none
Sunrise 05:00
Sunset 19:12
NOTAM 5 active NOTAM
Rotations During the last 90 days there were
37 flights from LHR
36 flights to LHR
Lounges Airport Airline Lounge, Departure
Airline Lounge , International Terminal
Web Airport Website | Wikipedia
Codes IATA: ISB
ICAO: OPIS
Altitude 502 Meter / 1646 Feet
Distance 6,012 KM / 3,736 Miles
from London.
Runways
RunwayLength (m)Surface
10L3658Asphalt
10R3658Asphalt
28L3658Asphalt
28R3658Asphalt
Radio
TypeDescriptionFrequency
APPIslamabad Approach121.65
APPIslamabad Approach124.65
DEPIslamabad Departure118.55
DEPIslamabad Departure119.65
GMC123.05
GMC125.15
GroundIslamabad Ground122.95
GroundIslamabad ZGround130.6
TowerIslamabad Tower122.15
TowerIslamabad Tower123.255
Live ATC



Support Speedbird Online

© 2017-2024 Speedbird Online